sensor_id;sensor_type;location;lat;lon;timestamp;pressure;altitude;pressure_sealevel;temperature
58929;BMP180;44713;53.378;10.022;2023-05-16T00:00:22;101012.00;;;11.50
58929;BMP180;44713;53.378;10.022;2023-05-16T00:02:49;101007.00;;;11.50
58929;BMP180;44713;53.378;10.022;2023-05-16T00:05:15;101019.00;;;11.60
58929;BMP180;44713;53.378;10.022;2023-05-16T00:07:44;101009.00;;;11.50
58929;BMP180;44713;53.378;10.022;2023-05-16T00:10:11;101011.00;;;11.60
58929;BMP180;44713;53.378;10.022;2023-05-16T00:12:37;101009.00;;;11.50
58929;BMP180;44713;53.378;10.022;2023-05-16T00:15:04;101006.00;;;11.50
58929;BMP180;44713;53.378;10.022;2023-05-16T00:17:31;101010.00;;;11.60
58929;BMP180;44713;53.378;10.022;2023-05-16T00:19:56;101007.00;;;11.70
58929;BMP180;44713;53.378;10.022;2023-05-16T00:22:25;101014.00;;;11.60
58929;BMP180;44713;53.378;10.022;2023-05-16T00:24:52;101020.00;;;11.60
58929;BMP180;44713;53.378;10.022;2023-05-16T00:27:17;101008.00;;;11.70
58929;BMP180;44713;53.378;10.022;2023-05-16T00:29:42;101014.00;;;11.70
58929;BMP180;44713;53.378;10.022;2023-05-16T00:32:07;101014.00;;;11.70
58929;BMP180;44713;53.378;10.022;2023-05-16T00:34:34;101014.00;;;11.60
58929;BMP180;44713;53.378;10.022;2023-05-16T00:36:59;101013.00;;;11.60
58929;BMP180;44713;53.378;10.022;2023-05-16T00:39:28;101021.00;;;11.60
58929;BMP180;44713;53.378;10.022;2023-05-16T00:41:55;101023.00;;;11.60
58929;BMP180;44713;53.378;10.022;2023-05-16T00:44:21;101015.00;;;11.50
58929;BMP180;44713;53.378;10.022;2023-05-16T00:46:47;101015.00;;;11.50
58929;BMP180;44713;53.378;10.022;2023-05-16T00:49:13;101023.00;;;11.50
58929;BMP180;44713;53.378;10.022;2023-05-16T00:51:38;101022.00;;;11.70
58929;BMP180;44713;53.378;10.022;2023-05-16T00:54:04;101026.00;;;11.70
58929;BMP180;44713;53.378;10.022;2023-05-16T00:56:30;101016.00;;;11.60
58929;BMP180;44713;53.378;10.022;2023-05-16T00:58:55;101022.00;;;11.70
58929;BMP180;44713;53.378;10.022;2023-05-16T01:01:22;101021.00;;;11.70
58929;BMP180;44713;53.378;10.022;2023-05-16T01:03:48;101010.00;;;11.70
58929;BMP180;44713;53.378;10.022;2023-05-16T01:06:14;101019.00;;;11.70
58929;BMP180;44713;53.378;10.022;2023-05-16T01:08:39;101018.00;;;11.70
58929;BMP180;44713;53.378;10.022;2023-05-16T01:11:27;101023.00;;;11.70
58929;BMP180;44713;53.378;10.022;2023-05-16T01:16:49;101027.00;;;11.60
58929;BMP180;44713;53.378;10.022;2023-05-16T01:19:38;101030.00;;;11.60
58929;BMP180;44713;53.378;10.022;2023-05-16T01:22:15;101024.00;;;11.70
58929;BMP180;44713;53.378;10.022;2023-05-16T01:25:01;101030.00;;;11.70
58929;BMP180;44713;53.378;10.022;2023-05-16T01:27:29;101026.00;;;11.70
58929;BMP180;44713;53.378;10.022;2023-05-16T01:29:56;101029.00;;;11.70
58929;BMP180;44713;53.378;10.022;2023-05-16T01:32:22;101020.00;;;11.70
58929;BMP180;44713;53.378;10.022;2023-05-16T01:34:49;101030.00;;;11.70
58929;BMP180;44713;53.378;10.022;2023-05-16T01:37:18;101027.00;;;11.70
58929;BMP180;44713;53.378;10.022;2023-05-16T01:39:54;101031.00;;;11.70
58929;BMP180;44713;53.378;10.022;2023-05-16T01:42:23;101022.00;;;11.70
58929;BMP180;44713;53.378;10.022;2023-05-16T01:47:23;101027.00;;;11.60
58929;BMP180;44713;53.378;10.022;2023-05-16T01:52:37;101021.00;;;11.40
58929;BMP180;44713;53.378;10.022;2023-05-16T01:55:10;101020.00;;;11.30
58929;BMP180;44713;53.378;10.022;2023-05-16T01:57:37;101019.00;;;11.40
58929;BMP180;44713;53.378;10.022;2023-05-16T02:00:04;101031.00;;;11.30
58929;BMP180;44713;53.378;10.022;2023-05-16T02:02:39;101025.00;;;11.30
58929;BMP180;44713;53.378;10.022;2023-05-16T02:05:05;101019.00;;;11.30
58929;BMP180;44713;53.378;10.022;2023-05-16T02:07:30;101015.00;;;11.30
58929;BMP180;44713;53.378;10.022;2023-05-16T02:09:56;101022.00;;;11.30
58929;BMP180;44713;53.378;10.022;2023-05-16T02:12:21;101031.00;;;11.40
58929;BMP180;44713;53.378;10.022;2023-05-16T02:14:46;101037.00;;;11.20
58929;BMP180;44713;53.378;10.022;2023-05-16T02:17:11;101043.00;;;11.20
58929;BMP180;44713;53.378;10.022;2023-05-16T02:19:37;101030.00;;;11.20
58929;BMP180;44713;53.378;10.022;2023-05-16T02:22:02;101040.00;;;11.10
58929;BMP180;44713;53.378;10.022;2023-05-16T02:24:27;101035.00;;;11.20
58929;BMP180;44713;53.378;10.022;2023-05-16T02:26:54;101045.00;;;11.10
58929;BMP180;44713;53.378;10.022;2023-05-16T02:29:19;101043.00;;;11.20
58929;BMP180;44713;53.378;10.022;2023-05-16T02:31:47;101037.00;;;11.20
58929;BMP180;44713;53.378;10.022;2023-05-16T02:34:13;101048.00;;;11.20
58929;BMP180;44713;53.378;10.022;2023-05-16T02:36:40;101053.00;;;11.20
58929;BMP180;44713;53.378;10.022;2023-05-16T02:39:06;101046.00;;;11.20
58929;BMP180;44713;53.378;10.022;2023-05-16T02:41:34;101056.00;;;11.00
58929;BMP180;44713;53.378;10.022;2023-05-16T02:43:59;101057.00;;;11.00
58929;BMP180;44713;53.378;10.022;2023-05-16T02:46:27;101064.00;;;11.00
58929;BMP180;44713;53.378;10.022;2023-05-16T02:48:53;101067.00;;;11.00
58929;BMP180;44713;53.378;10.022;2023-05-16T02:51:20;101055.00;;;11.00
58929;BMP180;44713;53.378;10.022;2023-05-16T02:53:45;101062.00;;;11.10
58929;BMP180;44713;53.378;10.022;2023-05-16T02:56:11;101068.00;;;11.00
58929;BMP180;44713;53.378;10.022;2023-05-16T02:58:38;101068.00;;;11.00
58929;BMP180;44713;53.378;10.022;2023-05-16T03:01:05;101059.00;;;10.90
58929;BMP180;44713;53.378;10.022;2023-05-16T03:03:30;101067.00;;;11.00
58929;BMP180;44713;53.378;10.022;2023-05-16T03:05:57;101066.00;;;11.00
58929;BMP180;44713;53.378;10.022;2023-05-16T03:08:22;101071.00;;;11.10
58929;BMP180;44713;53.378;10.022;2023-05-16T03:10:47;101070.00;;;11.10
58929;BMP180;44713;53.378;10.022;2023-05-16T03:13:13;101074.00;;;11.10
58929;BMP180;44713;53.378;10.022;2023-05-16T03:15:38;101080.00;;;11.10
58929;BMP180;44713;53.378;10.022;2023-05-16T03:18:03;101079.00;;;11.10
58929;BMP180;44713;53.378;10.022;2023-05-16T03:20:29;101083.00;;;11.10
58929;BMP180;44713;53.378;10.022;2023-05-16T03:22:55;101088.00;;;11.00
58929;BMP180;44713;53.378;10.022;2023-05-16T03:25:20;101095.00;;;11.00
58929;BMP180;44713;53.378;10.022;2023-05-16T03:27:45;101101.00;;;11.00
58929;BMP180;44713;53.378;10.022;2023-05-16T03:30:11;101093.00;;;11.00
58929;BMP180;44713;53.378;10.022;2023-05-16T03:32:37;101104.00;;;11.00
58929;BMP180;44713;53.378;10.022;2023-05-16T03:35:02;101103.00;;;11.00
58929;BMP180;44713;53.378;10.022;2023-05-16T03:37:28;101113.00;;;11.00
58929;BMP180;44713;53.378;10.022;2023-05-16T03:39:54;101095.00;;;11.00
58929;BMP180;44713;53.378;10.022;2023-05-16T03:42:19;101088.00;;;10.90
58929;BMP180;44713;53.378;10.022;2023-05-16T03:44:44;101091.00;;;11.00
58929;BMP180;44713;53.378;10.022;2023-05-16T03:47:10;101089.00;;;11.00
58929;BMP180;44713;53.378;10.022;2023-05-16T03:49:35;101099.00;;;11.00
58929;BMP180;44713;53.378;10.022;2023-05-16T03:52:04;101100.00;;;11.00
58929;BMP180;44713;53.378;10.022;2023-05-16T03:54:29;101102.00;;;10.90
58929;BMP180;44713;53.378;10.022;2023-05-16T03:56:55;101104.00;;;10.90
58929;BMP180;44713;53.378;10.022;2023-05-16T03:59:20;101112.00;;;10.80
58929;BMP180;44713;53.378;10.022;2023-05-16T04:01:46;101119.00;;;10.80
58929;BMP180;44713;53.378;10.022;2023-05-16T04:04:11;101126.00;;;10.80
58929;BMP180;44713;53.378;10.022;2023-05-16T04:06:37;101120.00;;;10.70
58929;BMP180;44713;53.378;10.022;2023-05-16T04:09:02;101120.00;;;10.80
58929;BMP180;44713;53.378;10.022;2023-05-16T04:11:27;101131.00;;;10.80
58929;BMP180;44713;53.378;10.022;2023-05-16T04:13:53;101134.00;;;10.70
58929;BMP180;44713;53.378;10.022;2023-05-16T04:16:18;101142.00;;;10.70
58929;BMP180;44713;53.378;10.022;2023-05-16T04:18:44;101125.00;;;10.70
58929;BMP180;44713;53.378;10.022;2023-05-16T04:21:10;101130.00;;;10.70
58929;BMP180;44713;53.378;10.022;2023-05-16T04:23:42;101127.00;;;10.80
58929;BMP180;44713;53.378;10.022;2023-05-16T04:26:07;101139.00;;;10.70
58929;BMP180;44713;53.378;10.022;2023-05-16T04:28:33;101156.00;;;10.80
58929;BMP180;44713;53.378;10.022;2023-05-16T04:30:58;101139.00;;;10.80
58929;BMP180;44713;53.378;10.022;2023-05-16T04:33:24;101149.00;;;10.70
58929;BMP180;44713;53.378;10.022;2023-05-16T04:35:49;101157.00;;;10.60
58929;BMP180;44713;53.378;10.022;2023-05-16T04:38:14;101161.00;;;10.60
58929;BMP180;44713;53.378;10.022;2023-05-16T04:40:40;101162.00;;;10.70
58929;BMP180;44713;53.378;10.022;2023-05-16T04:43:06;101174.00;;;10.70
58929;BMP180;44713;53.378;10.022;2023-05-16T04:45:32;101171.00;;;10.60
58929;BMP180;44713;53.378;10.022;2023-05-16T04:47:57;101180.00;;;10.60
58929;BMP180;44713;53.378;10.022;2023-05-16T04:50:22;101184.00;;;10.60
58929;BMP180;44713;53.378;10.022;2023-05-16T04:52:48;101182.00;;;10.60
58929;BMP180;44713;53.378;10.022;2023-05-16T04:55:13;101183.00;;;10.60
58929;BMP180;44713;53.378;10.022;2023-05-16T04:57:38;101187.00;;;10.60
58929;BMP180;44713;53.378;10.022;2023-05-16T05:00:06;101182.00;;;10.50
58929;BMP180;44713;53.378;10.022;2023-05-16T05:02:36;101177.00;;;10.60
58929;BMP180;44713;53.378;10.022;2023-05-16T05:05:02;101178.00;;;10.50
58929;BMP180;44713;53.378;10.022;2023-05-16T05:07:28;101190.00;;;10.50
58929;BMP180;44713;53.378;10.022;2023-05-16T05:09:53;101196.00;;;10.50
58929;BMP180;44713;53.378;10.022;2023-05-16T05:12:20;101193.00;;;10.50
58929;BMP180;44713;53.378;10.022;2023-05-16T05:14:46;101197.00;;;10.60
58929;BMP180;44713;53.378;10.022;2023-05-16T05:17:11;101194.00;;;10.70
58929;BMP180;44713;53.378;10.022;2023-05-16T05:19:36;101190.00;;;10.70
58929;BMP180;44713;53.378;10.022;2023-05-16T05:22:02;101198.00;;;10.60
58929;BMP180;44713;53.378;10.022;2023-05-16T05:24:27;101200.00;;;10.60
58929;BMP180;44713;53.378;10.022;2023-05-16T05:26:52;101210.00;;;10.50
58929;BMP180;44713;53.378;10.022;2023-05-16T05:29:18;101210.00;;;10.60
58929;BMP180;44713;53.378;10.022;2023-05-16T05:31:43;101211.00;;;10.60
58929;BMP180;44713;53.378;10.022;2023-05-16T05:34:08;101208.00;;;10.60
58929;BMP180;44713;53.378;10.022;2023-05-16T05:36:34;101209.00;;;10.50
58929;BMP180;44713;53.378;10.022;2023-05-16T05:38:59;101207.00;;;10.50
58929;BMP180;44713;53.378;10.022;2023-05-16T05:41:24;101204.00;;;10.50
58929;BMP180;44713;53.378;10.022;2023-05-16T05:43:50;101214.00;;;10.60
58929;BMP180;44713;53.378;10.022;2023-05-16T05:46:16;101212.00;;;10.70
58929;BMP180;44713;53.378;10.022;2023-05-16T05:48:41;101218.00;;;10.80
58929;BMP180;44713;53.378;10.022;2023-05-16T05:51:07;101214.00;;;10.70
58929;BMP180;44713;53.378;10.022;2023-05-16T05:53:33;101219.00;;;10.70
58929;BMP180;44713;53.378;10.022;2023-05-16T05:55:58;101216.00;;;10.60
58929;BMP180;44713;53.378;10.022;2023-05-16T05:58:24;101222.00;;;10.60
58929;BMP180;44713;53.378;10.022;2023-05-16T06:00:49;101221.00;;;10.60
58929;BMP180;44713;53.378;10.022;2023-05-16T06:03:15;101217.00;;;10.70
58929;BMP180;44713;53.378;10.022;2023-05-16T06:05:40;101222.00;;;10.80
58929;BMP180;44713;53.378;10.022;2023-05-16T06:08:06;101218.00;;;10.90
58929;BMP180;44713;53.378;10.022;2023-05-16T06:10:31;101236.00;;;11.10
58929;BMP180;44713;53.378;10.022;2023-05-16T06:12:56;101231.00;;;11.10
58929;BMP180;44713;53.378;10.022;2023-05-16T06:15:23;101229.00;;;11.10
58929;BMP180;44713;53.378;10.022;2023-05-16T06:17:52;101224.00;;;11.20
58929;BMP180;44713;53.378;10.022;2023-05-16T06:20:17;101226.00;;;11.20
58929;BMP180;44713;53.378;10.022;2023-05-16T06:22:42;101223.00;;;11.30
58929;BMP180;44713;53.378;10.022;2023-05-16T06:25:08;101232.00;;;11.40
58929;BMP180;44713;53.378;10.022;2023-05-16T06:27:34;101226.00;;;11.40
58929;BMP180;44713;53.378;10.022;2023-05-16T06:29:59;101226.00;;;11.40
58929;BMP180;44713;53.378;10.022;2023-05-16T06:32:24;101236.00;;;11.40
58929;BMP180;44713;53.378;10.022;2023-05-16T06:34:50;101241.00;;;11.30
58929;BMP180;44713;53.378;10.022;2023-05-16T06:37:15;101255.00;;;11.20
58929;BMP180;44713;53.378;10.022;2023-05-16T06:39:41;101255.00;;;11.10
58929;BMP180;44713;53.378;10.022;2023-05-16T06:42:06;101255.00;;;11.10
58929;BMP180;44713;53.378;10.022;2023-05-16T06:44:32;101262.00;;;10.90
58929;BMP180;44713;53.378;10.022;2023-05-16T06:46:57;101269.00;;;11.00
58929;BMP180;44713;53.378;10.022;2023-05-16T06:49:22;101272.00;;;11.00
58929;BMP180;44713;53.378;10.022;2023-05-16T06:51:48;101280.00;;;11.00
58929;BMP180;44713;53.378;10.022;2023-05-16T06:54:13;101282.00;;;11.10
58929;BMP180;44713;53.378;10.022;2023-05-16T06:56:39;101282.00;;;11.10
58929;BMP180;44713;53.378;10.022;2023-05-16T06:59:04;101275.00;;;11.10
58929;BMP180;44713;53.378;10.022;2023-05-16T07:01:29;101271.00;;;11.30
58929;BMP180;44713;53.378;10.022;2023-05-16T07:03:55;101267.00;;;11.50
58929;BMP180;44713;53.378;10.022;2023-05-16T07:06:20;101275.00;;;11.70
58929;BMP180;44713;53.378;10.022;2023-05-16T07:08:46;101285.00;;;11.60
58929;BMP180;44713;53.378;10.022;2023-05-16T07:11:11;101279.00;;;11.60
58929;BMP180;44713;53.378;10.022;2023-05-16T07:13:37;101282.00;;;11.70
58929;BMP180;44713;53.378;10.022;2023-05-16T07:16:02;101294.00;;;12.00
58929;BMP180;44713;53.378;10.022;2023-05-16T07:18:27;101290.00;;;11.80
58929;BMP180;44713;53.378;10.022;2023-05-16T07:20:53;101289.00;;;11.90
58929;BMP180;44713;53.378;10.022;2023-05-16T07:23:18;101283.00;;;12.00
58929;BMP180;44713;53.378;10.022;2023-05-16T07:25:44;101277.00;;;12.10
58929;BMP180;44713;53.378;10.022;2023-05-16T07:28:09;101294.00;;;12.30
58929;BMP180;44713;53.378;10.022;2023-05-16T07:30:35;101279.00;;;12.30
58929;BMP180;44713;53.378;10.022;2023-05-16T07:33:00;101291.00;;;12.40
58929;BMP180;44713;53.378;10.022;2023-05-16T07:35:25;101288.00;;;12.40
58929;BMP180;44713;53.378;10.022;2023-05-16T07:37:51;101286.00;;;12.50
58929;BMP180;44713;53.378;10.022;2023-05-16T07:40:16;101292.00;;;12.60
58929;BMP180;44713;53.378;10.022;2023-05-16T07:42:42;101290.00;;;12.70
58929;BMP180;44713;53.378;10.022;2023-05-16T07:45:08;101291.00;;;12.90
58929;BMP180;44713;53.378;10.022;2023-05-16T07:47:34;101281.00;;;12.90
58929;BMP180;44713;53.378;10.022;2023-05-16T07:49:59;101284.00;;;13.00
58929;BMP180;44713;53.378;10.022;2023-05-16T07:52:25;101298.00;;;13.10
58929;BMP180;44713;53.378;10.022;2023-05-16T07:54:50;101292.00;;;13.00
58929;BMP180;44713;53.378;10.022;2023-05-16T07:57:16;101289.00;;;13.20
58929;BMP180;44713;53.378;10.022;2023-05-16T07:59:42;101294.00;;;13.30
58929;BMP180;44713;53.378;10.022;2023-05-16T08:02:09;101306.00;;;13.00
58929;BMP180;44713;53.378;10.022;2023-05-16T08:04:34;101320.00;;;12.70
58929;BMP180;44713;53.378;10.022;2023-05-16T08:07:00;101317.00;;;12.50
58929;BMP180;44713;53.378;10.022;2023-05-16T08:09:25;101314.00;;;12.20
58929;BMP180;44713;53.378;10.022;2023-05-16T08:11:50;101308.00;;;12.20
58929;BMP180;44713;53.378;10.022;2023-05-16T08:14:16;101309.00;;;12.50
58929;BMP180;44713;53.378;10.022;2023-05-16T08:16:41;101306.00;;;12.70
58929;BMP180;44713;53.378;10.022;2023-05-16T08:19:06;101308.00;;;13.00
58929;BMP180;44713;53.378;10.022;2023-05-16T08:21:32;101310.00;;;13.30
58929;BMP180;44713;53.378;10.022;2023-05-16T08:23:57;101317.00;;;13.40
58929;BMP180;44713;53.378;10.022;2023-05-16T08:26:22;101306.00;;;13.40
58929;BMP180;44713;53.378;10.022;2023-05-16T08:28:48;101304.00;;;13.60
58929;BMP180;44713;53.378;10.022;2023-05-16T08:31:14;101297.00;;;13.90
58929;BMP180;44713;53.378;10.022;2023-05-16T08:33:39;101303.00;;;13.90
58929;BMP180;44713;53.378;10.022;2023-05-16T08:36:05;101315.00;;;13.90
58929;BMP180;44713;53.378;10.022;2023-05-16T08:38:30;101302.00;;;13.40
58929;BMP180;44713;53.378;10.022;2023-05-16T08:40:56;101311.00;;;13.40
58929;BMP180;44713;53.378;10.022;2023-05-16T08:43:21;101327.00;;;13.20
58929;BMP180;44713;53.378;10.022;2023-05-16T08:45:47;101326.00;;;12.90
58929;BMP180;44713;53.378;10.022;2023-05-16T08:48:14;101326.00;;;12.80
58929;BMP180;44713;53.378;10.022;2023-05-16T08:50:41;101339.00;;;12.80
58929;BMP180;44713;53.378;10.022;2023-05-16T08:53:08;101336.00;;;12.80
58929;BMP180;44713;53.378;10.022;2023-05-16T08:55:36;101329.00;;;12.50
58929;BMP180;44713;53.378;10.022;2023-05-16T08:58:03;101327.00;;;12.50
58929;BMP180;44713;53.378;10.022;2023-05-16T09:00:28;101325.00;;;13.10
58929;BMP180;44713;53.378;10.022;2023-05-16T09:02:54;101322.00;;;13.10
58929;BMP180;44713;53.378;10.022;2023-05-16T09:05:21;101331.00;;;13.20
58929;BMP180;44713;53.378;10.022;2023-05-16T09:07:46;101316.00;;;13.30
58929;BMP180;44713;53.378;10.022;2023-05-16T09:10:12;101327.00;;;13.30
58929;BMP180;44713;53.378;10.022;2023-05-16T09:12:41;101321.00;;;13.50
58929;BMP180;44713;53.378;10.022;2023-05-16T09:15:09;101316.00;;;13.80
58929;BMP180;44713;53.378;10.022;2023-05-16T09:17:41;101313.00;;;14.20
58929;BMP180;44713;53.378;10.022;2023-05-16T09:20:12;101310.00;;;14.50
58929;BMP180;44713;53.378;10.022;2023-05-16T09:22:38;101312.00;;;14.90
58929;BMP180;44713;53.378;10.022;2023-05-16T09:25:04;101304.00;;;14.70
58929;BMP180;44713;53.378;10.022;2023-05-16T09:27:30;101306.00;;;15.10
58929;BMP180;44713;53.378;10.022;2023-05-16T09:29:57;101301.00;;;15.30
58929;BMP180;44713;53.378;10.022;2023-05-16T09:32:22;101313.00;;;15.40
58929;BMP180;44713;53.378;10.022;2023-05-16T09:34:48;101319.00;;;15.10
58929;BMP180;44713;53.378;10.022;2023-05-16T09:37:16;101319.00;;;14.40
58929;BMP180;44713;53.378;10.022;2023-05-16T09:39:45;101335.00;;;13.80
58929;BMP180;44713;53.378;10.022;2023-05-16T09:42:12;101332.00;;;13.20
58929;BMP180;44713;53.378;10.022;2023-05-16T09:44:38;101324.00;;;13.10
58929;BMP180;44713;53.378;10.022;2023-05-16T09:47:04;101320.00;;;13.30
58929;BMP180;44713;53.378;10.022;2023-05-16T09:49:30;101318.00;;;14.10
58929;BMP180;44713;53.378;10.022;2023-05-16T09:51:59;101319.00;;;14.50
58929;BMP180;44713;53.378;10.022;2023-05-16T09:54:33;101310.00;;;14.60
58929;BMP180;44713;53.378;10.022;2023-05-16T09:56:59;101309.00;;;14.60
58929;BMP180;44713;53.378;10.022;2023-05-16T09:59:27;101313.00;;;14.40
58929;BMP180;44713;53.378;10.022;2023-05-16T10:01:53;101316.00;;;14.20
58929;BMP180;44713;53.378;10.022;2023-05-16T10:04:19;101321.00;;;14.30
58929;BMP180;44713;53.378;10.022;2023-05-16T10:06:44;101313.00;;;14.50
58929;BMP180;44713;53.378;10.022;2023-05-16T10:09:11;101312.00;;;15.00
58929;BMP180;44713;53.378;10.022;2023-05-16T10:11:41;101314.00;;;15.60
58929;BMP180;44713;53.378;10.022;2023-05-16T10:14:10;101321.00;;;15.50
58929;BMP180;44713;53.378;10.022;2023-05-16T10:16:40;101322.00;;;15.10
58929;BMP180;44713;53.378;10.022;2023-05-16T10:19:07;101332.00;;;14.30
58929;BMP180;44713;53.378;10.022;2023-05-16T10:21:32;101338.00;;;14.30
58929;BMP180;44713;53.378;10.022;2023-05-16T10:24:02;101333.00;;;14.10
58929;BMP180;44713;53.378;10.022;2023-05-16T10:26:31;101339.00;;;14.30
58929;BMP180;44713;53.378;10.022;2023-05-16T10:28:56;101334.00;;;14.00
58929;BMP180;44713;53.378;10.022;2023-05-16T10:31:22;101328.00;;;14.10
58929;BMP180;44713;53.378;10.022;2023-05-16T10:33:48;101323.00;;;14.40
58929;BMP180;44713;53.378;10.022;2023-05-16T10:36:15;101325.00;;;15.20
58929;BMP180;44713;53.378;10.022;2023-05-16T10:38:41;101339.00;;;15.50
58929;BMP180;44713;53.378;10.022;2023-05-16T10:41:07;101347.00;;;14.90
58929;BMP180;44713;53.378;10.022;2023-05-16T10:43:32;101339.00;;;14.40
58929;BMP180;44713;53.378;10.022;2023-05-16T10:46:02;101341.00;;;13.90
58929;BMP180;44713;53.378;10.022;2023-05-16T10:48:35;101324.00;;;13.80
58929;BMP180;44713;53.378;10.022;2023-05-16T10:51:02;101318.00;;;14.50
58929;BMP180;44713;53.378;10.022;2023-05-16T10:53:32;101321.00;;;15.20
58929;BMP180;44713;53.378;10.022;2023-05-16T11:04:10;101313.00;;;15.80
58929;BMP180;44713;53.378;10.022;2023-05-16T11:09:27;101322.00;;;14.80
58929;BMP180;44713;53.378;10.022;2023-05-16T11:11:59;101324.00;;;15.20
58929;BMP180;44713;53.378;10.022;2023-05-16T11:14:40;101341.00;;;16.00
58929;BMP180;44713;53.378;10.022;2023-05-16T11:17:13;101362.00;;;16.30
58929;BMP180;44713;53.378;10.022;2023-05-16T11:19:44;101374.00;;;15.10
58929;BMP180;44713;53.378;10.022;2023-05-16T11:24:56;101352.00;;;14.80
58929;BMP180;44713;53.378;10.022;2023-05-16T11:29:48;101367.00;;;14.90
58929;BMP180;44713;53.378;10.022;2023-05-16T11:32:18;101391.00;;;14.90
58929;BMP180;44713;53.378;10.022;2023-05-16T11:34:45;101384.00;;;15.30
58929;BMP180;44713;53.378;10.022;2023-05-16T11:37:11;101391.00;;;14.60
58929;BMP180;44713;53.378;10.022;2023-05-16T11:39:37;101384.00;;;14.10
58929;BMP180;44713;53.378;10.022;2023-05-16T11:42:02;101402.00;;;14.00
58929;BMP180;44713;53.378;10.022;2023-05-16T11:44:28;101397.00;;;14.00
58929;BMP180;44713;53.378;10.022;2023-05-16T11:46:53;101388.00;;;13.80
58929;BMP180;44713;53.378;10.022;2023-05-16T11:49:18;101383.00;;;14.80
58929;BMP180;44713;53.378;10.022;2023-05-16T11:51:44;101370.00;;;15.30
58929;BMP180;44713;53.378;10.022;2023-05-16T11:54:09;101376.00;;;16.10
58929;BMP180;44713;53.378;10.022;2023-05-16T11:56:38;101362.00;;;16.40
58929;BMP180;44713;53.378;10.022;2023-05-16T11:59:22;101374.00;;;16.60
58929;BMP180;44713;53.378;10.022;2023-05-16T12:01:47;101362.00;;;16.90
58929;BMP180;44713;53.378;10.022;2023-05-16T12:04:15;101366.00;;;16.60
58929;BMP180;44713;53.378;10.022;2023-05-16T12:06:41;101374.00;;;15.60
58929;BMP180;44713;53.378;10.022;2023-05-16T12:09:13;101379.00;;;14.90
58929;BMP180;44713;53.378;10.022;2023-05-16T12:11:40;101380.00;;;15.00
58929;BMP180;44713;53.378;10.022;2023-05-16T12:14:07;101379.00;;;15.50
58929;BMP180;44713;53.378;10.022;2023-05-16T12:16:34;101387.00;;;15.10
58929;BMP180;44713;53.378;10.022;2023-05-16T12:19:01;101393.00;;;15.00
58929;BMP180;44713;53.378;10.022;2023-05-16T12:21:26;101382.00;;;14.90
58929;BMP180;44713;53.378;10.022;2023-05-16T12:23:55;101391.00;;;15.20
58929;BMP180;44713;53.378;10.022;2023-05-16T12:26:29;101388.00;;;15.70
58929;BMP180;44713;53.378;10.022;2023-05-16T12:29:02;101404.00;;;16.10
58929;BMP180;44713;53.378;10.022;2023-05-16T12:31:30;101409.00;;;15.40
58929;BMP180;44713;53.378;10.022;2023-05-16T12:33:56;101420.00;;;14.90
58929;BMP180;44713;53.378;10.022;2023-05-16T12:36:22;101417.00;;;14.90
58929;BMP180;44713;53.378;10.022;2023-05-16T12:38:48;101423.00;;;14.60
58929;BMP180;44713;53.378;10.022;2023-05-16T12:41:18;101424.00;;;14.10
58929;BMP180;44713;53.378;10.022;2023-05-16T12:43:44;101423.00;;;14.30
58929;BMP180;44713;53.378;10.022;2023-05-16T12:46:10;101423.00;;;14.30
58929;BMP180;44713;53.378;10.022;2023-05-16T12:48:38;101423.00;;;14.00
58929;BMP180;44713;53.378;10.022;2023-05-16T12:51:16;101425.00;;;14.70
58929;BMP180;44713;53.378;10.022;2023-05-16T12:53:47;101429.00;;;15.20
58929;BMP180;44713;53.378;10.022;2023-05-16T12:56:13;101439.00;;;15.40
58929;BMP180;44713;53.378;10.022;2023-05-16T12:58:40;101436.00;;;14.80
58929;BMP180;44713;53.378;10.022;2023-05-16T13:01:06;101437.00;;;14.50
58929;BMP180;44713;53.378;10.022;2023-05-16T13:03:32;101453.00;;;14.20
58929;BMP180;44713;53.378;10.022;2023-05-16T13:05:58;101449.00;;;13.90
58929;BMP180;44713;53.378;10.022;2023-05-16T13:08:24;101446.00;;;13.90
58929;BMP180;44713;53.378;10.022;2023-05-16T13:10:50;101452.00;;;14.10
58929;BMP180;44713;53.378;10.022;2023-05-16T13:13:16;101439.00;;;14.50
58929;BMP180;44713;53.378;10.022;2023-05-16T13:15:43;101436.00;;;15.50
58929;BMP180;44713;53.378;10.022;2023-05-16T13:18:12;101425.00;;;15.60
58929;BMP180;44713;53.378;10.022;2023-05-16T13:21:17;101430.00;;;16.00
58929;BMP180;44713;53.378;10.022;2023-05-16T13:23:42;101434.00;;;16.00
58929;BMP180;44713;53.378;10.022;2023-05-16T13:26:07;101429.00;;;16.60
58929;BMP180;44713;53.378;10.022;2023-05-16T13:28:33;101426.00;;;16.50
58929;BMP180;44713;53.378;10.022;2023-05-16T13:30:59;101435.00;;;16.30
58929;BMP180;44713;53.378;10.022;2023-05-16T13:33:25;101429.00;;;16.30
58929;BMP180;44713;53.378;10.022;2023-05-16T13:35:50;101447.00;;;15.70
58929;BMP180;44713;53.378;10.022;2023-05-16T13:38:16;101438.00;;;15.60
58929;BMP180;44713;53.378;10.022;2023-05-16T13:40:41;101431.00;;;15.80
58929;BMP180;44713;53.378;10.022;2023-05-16T13:43:07;101430.00;;;16.30
58929;BMP180;44713;53.378;10.022;2023-05-16T13:45:32;101422.00;;;16.80
58929;BMP180;44713;53.378;10.022;2023-05-16T13:47:57;101416.00;;;17.00
58929;BMP180;44713;53.378;10.022;2023-05-16T13:50:22;101436.00;;;16.70
58929;BMP180;44713;53.378;10.022;2023-05-16T13:52:48;101451.00;;;16.20
58929;BMP180;44713;53.378;10.022;2023-05-16T13:55:13;101456.00;;;15.70
58929;BMP180;44713;53.378;10.022;2023-05-16T13:57:39;101460.00;;;15.40
58929;BMP180;44713;53.378;10.022;2023-05-16T14:00:04;101455.00;;;15.20
58929;BMP180;44713;53.378;10.022;2023-05-16T14:02:39;101481.00;;;15.60
58929;BMP180;44713;53.378;10.022;2023-05-16T14:05:06;101471.00;;;15.50